sensor_id;sensor_type;location;lat;lon;timestamp;P1;durP1;ratioP1;P2;durP2;ratioP2
6019;SDS011;3038;51.122;6.840;2022-12-29T00:01:28;1.47;;;1.10;;
6019;SDS011;3038;51.122;6.840;2022-12-29T00:03:54;1.33;;;1.20;;
6019;SDS011;3038;51.122;6.840;2022-12-29T00:06:19;2.70;;;1.73;;
6019;SDS011;3038;51.122;6.840;2022-12-29T00:08:44;1.20;;;1.10;;
6019;SDS011;3038;51.122;6.840;2022-12-29T00:11:14;1.87;;;1.60;;
6019;SDS011;3038;51.122;6.840;2022-12-29T00:13:42;1.63;;;1.47;;
6019;SDS011;3038;51.122;6.840;2022-12-29T00:16:26;2.60;;;2.03;;
6019;SDS011;3038;51.122;6.840;2022-12-29T00:18:52;1.73;;;1.63;;
6019;SDS011;3038;51.122;6.840;2022-12-29T00:21:18;2.63;;;2.07;;
6019;SDS011;3038;51.122;6.840;2022-12-29T00:24:03;2.33;;;1.57;;
6019;SDS011;3038;51.122;6.840;2022-12-29T00:26:49;2.30;;;1.43;;
6019;SDS011;3038;51.122;6.840;2022-12-29T00:29:40;1.70;;;1.60;;
6019;SDS011;3038;51.122;6.840;2022-12-29T00:32:24;2.23;;;1.27;;
6019;SDS011;3038;51.122;6.840;2022-12-29T00:35:09;1.57;;;1.47;;
6019;SDS011;3038;51.122;6.840;2022-12-29T00:37:45;2.37;;;1.80;;
6019;SDS011;3038;51.122;6.840;2022-12-29T00:40:31;1.63;;;1.37;;
6019;SDS011;3038;51.122;6.840;2022-12-29T00:43:14;1.70;;;1.30;;
6019;SDS011;3038;51.122;6.840;2022-12-29T00:45:58;1.53;;;1.43;;
6019;SDS011;3038;51.122;6.840;2022-12-29T00:48:24;1.47;;;1.00;;
6019;SDS011;3038;51.122;6.840;2022-12-29T00:51:08;1.93;;;1.10;;
6019;SDS011;3038;51.122;6.840;2022-12-29T00:53:33;1.07;;;0.83;;
6019;SDS011;3038;51.122;6.840;2022-12-29T00:55:59;1.17;;;0.50;;
6019;SDS011;3038;51.122;6.840;2022-12-29T00:58:28;1.03;;;0.67;;
6019;SDS011;3038;51.122;6.840;2022-12-29T01:01:04;0.80;;;0.50;;
6019;SDS011;3038;51.122;6.840;2022-12-29T01:03:31;0.80;;;0.60;;
6019;SDS011;3038;51.122;6.840;2022-12-29T01:05:59;0.87;;;0.70;;
6019;SDS011;3038;51.122;6.840;2022-12-29T01:08:26;1.03;;;0.60;;
6019;SDS011;3038;51.122;6.840;2022-12-29T01:11:00;0.60;;;0.50;;
6019;SDS011;3038;51.122;6.840;2022-12-29T01:13:27;1.20;;;0.70;;
6019;SDS011;3038;51.122;6.840;2022-12-29T01:15:52;0.63;;;0.50;;
6019;SDS011;3038;51.122;6.840;2022-12-29T01:18:18;2.23;;;0.60;;
6019;SDS011;3038;51.122;6.840;2022-12-29T01:20:44;0.70;;;0.60;;
6019;SDS011;3038;51.122;6.840;2022-12-29T01:23:10;0.80;;;0.60;;
6019;SDS011;3038;51.122;6.840;2022-12-29T01:25:35;0.60;;;0.40;;
6019;SDS011;3038;51.122;6.840;2022-12-29T01:28:00;0.80;;;0.50;;
6019;SDS011;3038;51.122;6.840;2022-12-29T01:30:26;0.90;;;0.50;;
6019;SDS011;3038;51.122;6.840;2022-12-29T01:32:51;0.63;;;0.50;;
6019;SDS011;3038;51.122;6.840;2022-12-29T01:35:16;0.60;;;0.47;;
6019;SDS011;3038;51.122;6.840;2022-12-29T01:37:42;0.57;;;0.37;;
6019;SDS011;3038;51.122;6.840;2022-12-29T01:40:07;0.63;;;0.50;;
6019;SDS011;3038;51.122;6.840;2022-12-29T01:42:33;0.93;;;0.60;;
6019;SDS011;3038;51.122;6.840;2022-12-29T01:45:03;1.03;;;0.60;;
6019;SDS011;3038;51.122;6.840;2022-12-29T01:47:49;0.80;;;0.60;;
6019;SDS011;3038;51.122;6.840;2022-12-29T01:50:26;0.60;;;0.40;;
6019;SDS011;3038;51.122;6.840;2022-12-29T01:52:57;0.70;;;0.53;;
6019;SDS011;3038;51.122;6.840;2022-12-29T01:55:30;0.87;;;0.60;;
6019;SDS011;3038;51.122;6.840;2022-12-29T01:57:59;0.80;;;0.73;;
6019;SDS011;3038;51.122;6.840;2022-12-29T02:00:29;0.60;;;0.40;;
6019;SDS011;3038;51.122;6.840;2022-12-29T02:02:54;3.23;;;0.70;;
6019;SDS011;3038;51.122;6.840;2022-12-29T02:08:17;0.93;;;0.77;;
6019;SDS011;3038;51.122;6.840;2022-12-29T02:10:45;1.57;;;0.80;;
6019;SDS011;3038;51.122;6.840;2022-12-29T02:13:14;1.07;;;0.80;;
6019;SDS011;3038;51.122;6.840;2022-12-29T02:20:56;1.30;;;0.73;;
6019;SDS011;3038;51.122;6.840;2022-12-29T02:29:46;2.33;;;1.00;;
6019;SDS011;3038;51.122;6.840;2022-12-29T02:32:35;2.10;;;0.80;;
6019;SDS011;3038;51.122;6.840;2022-12-29T02:40:53;1.27;;;0.80;;
6019;SDS011;3038;51.122;6.840;2022-12-29T02:46:32;1.00;;;0.67;;
6019;SDS011;3038;51.122;6.840;2022-12-29T02:49:08;1.23;;;0.93;;
6019;SDS011;3038;51.122;6.840;2022-12-29T02:51:37;2.13;;;1.03;;
6019;SDS011;3038;51.122;6.840;2022-12-29T02:54:09;1.07;;;0.90;;
6019;SDS011;3038;51.122;6.840;2022-12-29T02:56:53;0.93;;;0.83;;
6019;SDS011;3038;51.122;6.840;2022-12-29T02:59:18;2.80;;;0.90;;
6019;SDS011;3038;51.122;6.840;2022-12-29T03:01:57;2.10;;;0.90;;
6019;SDS011;3038;51.122;6.840;2022-12-29T03:07:23;1.27;;;0.77;;
6019;SDS011;3038;51.122;6.840;2022-12-29T03:16:11;1.10;;;0.80;;
6019;SDS011;3038;51.122;6.840;2022-12-29T03:24:22;3.33;;;1.00;;
6019;SDS011;3038;51.122;6.840;2022-12-29T03:26:57;1.63;;;1.30;;
6019;SDS011;3038;51.122;6.840;2022-12-29T03:29:26;1.60;;;0.73;;
6019;SDS011;3038;51.122;6.840;2022-12-29T03:31:54;1.00;;;0.70;;
6019;SDS011;3038;51.122;6.840;2022-12-29T03:34:21;1.03;;;0.80;;
6019;SDS011;3038;51.122;6.840;2022-12-29T03:36:53;3.60;;;0.90;;
6019;SDS011;3038;51.122;6.840;2022-12-29T03:39:24;1.00;;;0.70;;
6019;SDS011;3038;51.122;6.840;2022-12-29T03:41:50;0.80;;;0.80;;
6019;SDS011;3038;51.122;6.840;2022-12-29T03:44:31;0.90;;;0.67;;
6019;SDS011;3038;51.122;6.840;2022-12-29T03:47:05;1.80;;;0.90;;
6019;SDS011;3038;51.122;6.840;2022-12-29T03:49:31;1.17;;;0.70;;
6019;SDS011;3038;51.122;6.840;2022-12-29T03:51:57;1.10;;;0.63;;
6019;SDS011;3038;51.122;6.840;2022-12-29T03:54:23;0.70;;;0.70;;
6019;SDS011;3038;51.122;6.840;2022-12-29T03:56:48;0.87;;;0.70;;
6019;SDS011;3038;51.122;6.840;2022-12-29T03:59:14;1.47;;;0.87;;
6019;SDS011;3038;51.122;6.840;2022-12-29T04:01:39;2.23;;;0.80;;
6019;SDS011;3038;51.122;6.840;2022-12-29T04:04:05;2.40;;;0.83;;
6019;SDS011;3038;51.122;6.840;2022-12-29T04:06:30;0.90;;;0.70;;
6019;SDS011;3038;51.122;6.840;2022-12-29T04:08:56;0.83;;;0.70;;
6019;SDS011;3038;51.122;6.840;2022-12-29T04:11:21;1.40;;;0.80;;
6019;SDS011;3038;51.122;6.840;2022-12-29T04:13:47;0.70;;;0.60;;
6019;SDS011;3038;51.122;6.840;2022-12-29T04:16:12;1.30;;;0.90;;
6019;SDS011;3038;51.122;6.840;2022-12-29T04:18:37;1.03;;;0.60;;
6019;SDS011;3038;51.122;6.840;2022-12-29T04:21:03;1.20;;;0.90;;
6019;SDS011;3038;51.122;6.840;2022-12-29T04:23:30;1.40;;;0.73;;
6019;SDS011;3038;51.122;6.840;2022-12-29T04:25:57;0.87;;;0.50;;
6019;SDS011;3038;51.122;6.840;2022-12-29T04:28:22;1.90;;;1.00;;
6019;SDS011;3038;51.122;6.840;2022-12-29T04:30:48;1.00;;;0.83;;
6019;SDS011;3038;51.122;6.840;2022-12-29T04:33:13;1.07;;;0.70;;
6019;SDS011;3038;51.122;6.840;2022-12-29T04:35:39;2.27;;;1.40;;
6019;SDS011;3038;51.122;6.840;2022-12-29T04:38:04;1.67;;;1.30;;
6019;SDS011;3038;51.122;6.840;2022-12-29T04:40:29;1.00;;;0.80;;
6019;SDS011;3038;51.122;6.840;2022-12-29T04:42:55;2.20;;;1.10;;
6019;SDS011;3038;51.122;6.840;2022-12-29T04:45:21;1.57;;;0.80;;
6019;SDS011;3038;51.122;6.840;2022-12-29T04:47:48;1.40;;;0.90;;
6019;SDS011;3038;51.122;6.840;2022-12-29T04:50:13;2.27;;;0.87;;
6019;SDS011;3038;51.122;6.840;2022-12-29T04:52:39;1.10;;;0.60;;
6019;SDS011;3038;51.122;6.840;2022-12-29T04:55:04;1.07;;;0.50;;
6019;SDS011;3038;51.122;6.840;2022-12-29T04:57:30;1.20;;;0.70;;
6019;SDS011;3038;51.122;6.840;2022-12-29T04:59:56;1.20;;;1.00;;
6019;SDS011;3038;51.122;6.840;2022-12-29T05:02:22;2.90;;;1.20;;
6019;SDS011;3038;51.122;6.840;2022-12-29T05:04:47;1.00;;;0.60;;
6019;SDS011;3038;51.122;6.840;2022-12-29T05:07:13;2.30;;;0.60;;
6019;SDS011;3038;51.122;6.840;2022-12-29T05:09:38;0.70;;;0.40;;
6019;SDS011;3038;51.122;6.840;2022-12-29T05:12:04;1.00;;;0.90;;
6019;SDS011;3038;51.122;6.840;2022-12-29T05:14:29;1.30;;;0.80;;
6019;SDS011;3038;51.122;6.840;2022-12-29T05:16:55;2.73;;;0.97;;
6019;SDS011;3038;51.122;6.840;2022-12-29T05:19:20;1.13;;;0.70;;
6019;SDS011;3038;51.122;6.840;2022-12-29T05:21:45;0.80;;;0.70;;
6019;SDS011;3038;51.122;6.840;2022-12-29T05:24:11;1.20;;;0.83;;
6019;SDS011;3038;51.122;6.840;2022-12-29T05:26:36;2.20;;;0.90;;
6019;SDS011;3038;51.122;6.840;2022-12-29T05:29:02;1.53;;;1.00;;
6019;SDS011;3038;51.122;6.840;2022-12-29T05:31:28;1.77;;;1.00;;
6019;SDS011;3038;51.122;6.840;2022-12-29T05:33:53;1.43;;;1.33;;
6019;SDS011;3038;51.122;6.840;2022-12-29T05:36:19;2.10;;;0.80;;
6019;SDS011;3038;51.122;6.840;2022-12-29T05:38:44;1.43;;;0.70;;
6019;SDS011;3038;51.122;6.840;2022-12-29T05:41:10;4.63;;;0.83;;
6019;SDS011;3038;51.122;6.840;2022-12-29T05:43:35;2.33;;;1.00;;
6019;SDS011;3038;51.122;6.840;2022-12-29T05:46:01;1.50;;;0.93;;
6019;SDS011;3038;51.122;6.840;2022-12-29T05:48:26;1.10;;;0.60;;
6019;SDS011;3038;51.122;6.840;2022-12-29T05:50:52;1.33;;;0.73;;
6019;SDS011;3038;51.122;6.840;2022-12-29T05:53:17;1.50;;;0.90;;
6019;SDS011;3038;51.122;6.840;2022-12-29T05:55:47;2.50;;;0.80;;
6019;SDS011;3038;51.122;6.840;2022-12-29T05:58:13;2.03;;;0.90;;
6019;SDS011;3038;51.122;6.840;2022-12-29T06:00:38;1.00;;;0.50;;
6019;SDS011;3038;51.122;6.840;2022-12-29T06:03:04;0.70;;;0.50;;
6019;SDS011;3038;51.122;6.840;2022-12-29T06:05:29;1.07;;;0.50;;
6019;SDS011;3038;51.122;6.840;2022-12-29T06:07:55;2.10;;;1.00;;
6019;SDS011;3038;51.122;6.840;2022-12-29T06:10:20;0.80;;;0.70;;
6019;SDS011;3038;51.122;6.840;2022-12-29T06:12:45;1.33;;;0.80;;
6019;SDS011;3038;51.122;6.840;2022-12-29T06:15:11;2.50;;;0.80;;
6019;SDS011;3038;51.122;6.840;2022-12-29T06:17:37;1.63;;;0.80;;
6019;SDS011;3038;51.122;6.840;2022-12-29T06:20:02;1.40;;;0.70;;
6019;SDS011;3038;51.122;6.840;2022-12-29T06:22:28;1.40;;;0.77;;
6019;SDS011;3038;51.122;6.840;2022-12-29T06:24:53;0.90;;;0.63;;
6019;SDS011;3038;51.122;6.840;2022-12-29T06:27:19;3.30;;;1.10;;
6019;SDS011;3038;51.122;6.840;2022-12-29T06:29:44;2.00;;;1.07;;
6019;SDS011;3038;51.122;6.840;2022-12-29T06:32:09;2.60;;;0.90;;
6019;SDS011;3038;51.122;6.840;2022-12-29T06:34:35;2.00;;;0.93;;
6019;SDS011;3038;51.122;6.840;2022-12-29T06:37:00;3.43;;;0.80;;
6019;SDS011;3038;51.122;6.840;2022-12-29T06:39:26;0.77;;;0.50;;
6019;SDS011;3038;51.122;6.840;2022-12-29T06:41:52;1.53;;;0.80;;
6019;SDS011;3038;51.122;6.840;2022-12-29T06:44:18;2.93;;;1.30;;
6019;SDS011;3038;51.122;6.840;2022-12-29T06:46:44;2.30;;;0.70;;
6019;SDS011;3038;51.122;6.840;2022-12-29T06:49:10;1.47;;;0.97;;
6019;SDS011;3038;51.122;6.840;2022-12-29T06:51:35;1.40;;;0.60;;
6019;SDS011;3038;51.122;6.840;2022-12-29T06:54:01;2.53;;;1.23;;
6019;SDS011;3038;51.122;6.840;2022-12-29T06:56:26;3.73;;;1.53;;
6019;SDS011;3038;51.122;6.840;2022-12-29T06:58:51;4.27;;;0.87;;
6019;SDS011;3038;51.122;6.840;2022-12-29T07:01:17;1.00;;;0.60;;
6019;SDS011;3038;51.122;6.840;2022-12-29T07:03:42;5.80;;;1.43;;
6019;SDS011;3038;51.122;6.840;2022-12-29T07:06:08;3.37;;;1.13;;
6019;SDS011;3038;51.122;6.840;2022-12-29T07:08:33;1.00;;;0.67;;
6019;SDS011;3038;51.122;6.840;2022-12-29T07:10:58;1.60;;;0.70;;
6019;SDS011;3038;51.122;6.840;2022-12-29T07:13:24;2.67;;;1.07;;
6019;SDS011;3038;51.122;6.840;2022-12-29T07:15:49;1.63;;;1.10;;
6019;SDS011;3038;51.122;6.840;2022-12-29T07:18:14;1.40;;;0.60;;
6019;SDS011;3038;51.122;6.840;2022-12-29T07:20:40;2.30;;;1.20;;
6019;SDS011;3038;51.122;6.840;2022-12-29T07:23:05;1.83;;;0.90;;
6019;SDS011;3038;51.122;6.840;2022-12-29T07:25:30;1.83;;;0.70;;
6019;SDS011;3038;51.122;6.840;2022-12-29T07:27:56;1.10;;;0.57;;
6019;SDS011;3038;51.122;6.840;2022-12-29T07:30:21;3.50;;;0.70;;
6019;SDS011;3038;51.122;6.840;2022-12-29T07:32:47;1.23;;;0.73;;
6019;SDS011;3038;51.122;6.840;2022-12-29T07:35:12;1.90;;;0.83;;
6019;SDS011;3038;51.122;6.840;2022-12-29T07:37:37;6.53;;;1.20;;
6019;SDS011;3038;51.122;6.840;2022-12-29T07:40:03;3.40;;;0.93;;
6019;SDS011;3038;51.122;6.840;2022-12-29T07:42:30;7.10;;;1.40;;
6019;SDS011;3038;51.122;6.840;2022-12-29T07:44:55;1.30;;;0.93;;
6019;SDS011;3038;51.122;6.840;2022-12-29T07:47:21;1.47;;;1.10;;
6019;SDS011;3038;51.122;6.840;2022-12-29T07:49:46;4.23;;;1.37;;
6019;SDS011;3038;51.122;6.840;2022-12-29T07:52:12;4.17;;;1.03;;
6019;SDS011;3038;51.122;6.840;2022-12-29T07:54:37;5.33;;;1.07;;
6019;SDS011;3038;51.122;6.840;2022-12-29T07:57:03;1.20;;;0.73;;
6019;SDS011;3038;51.122;6.840;2022-12-29T07:59:29;2.50;;;0.90;;
6019;SDS011;3038;51.122;6.840;2022-12-29T08:01:55;3.53;;;1.73;;
6019;SDS011;3038;51.122;6.840;2022-12-29T08:04:20;3.90;;;0.90;;
6019;SDS011;3038;51.122;6.840;2022-12-29T08:06:46;2.43;;;1.10;;
6019;SDS011;3038;51.122;6.840;2022-12-29T08:09:11;2.60;;;1.30;;
6019;SDS011;3038;51.122;6.840;2022-12-29T08:11:37;2.13;;;1.10;;
6019;SDS011;3038;51.122;6.840;2022-12-29T08:14:02;2.60;;;1.13;;
6019;SDS011;3038;51.122;6.840;2022-12-29T08:16:28;2.30;;;1.07;;
6019;SDS011;3038;51.122;6.840;2022-12-29T08:18:54;1.20;;;0.57;;
6019;SDS011;3038;51.122;6.840;2022-12-29T08:21:19;2.00;;;0.90;;
6019;SDS011;3038;51.122;6.840;2022-12-29T08:23:45;4.30;;;1.30;;
6019;SDS011;3038;51.122;6.840;2022-12-29T08:26:10;2.07;;;0.80;;
6019;SDS011;3038;51.122;6.840;2022-12-29T08:28:36;2.00;;;0.90;;
6019;SDS011;3038;51.122;6.840;2022-12-29T08:31:02;3.30;;;1.20;;
6019;SDS011;3038;51.122;6.840;2022-12-29T08:33:28;2.93;;;1.13;;
6019;SDS011;3038;51.122;6.840;2022-12-29T08:36:00;3.00;;;1.70;;
6019;SDS011;3038;51.122;6.840;2022-12-29T08:38:27;2.60;;;0.70;;
6019;SDS011;3038;51.122;6.840;2022-12-29T08:40:53;1.90;;;0.93;;
6019;SDS011;3038;51.122;6.840;2022-12-29T08:43:19;1.00;;;0.90;;
6019;SDS011;3038;51.122;6.840;2022-12-29T08:45:44;0.90;;;0.70;;
6019;SDS011;3038;51.122;6.840;2022-12-29T08:48:10;1.27;;;0.80;;
6019;SDS011;3038;51.122;6.840;2022-12-29T08:50:35;1.57;;;0.87;;
6019;SDS011;3038;51.122;6.840;2022-12-29T08:53:00;4.10;;;1.10;;
6019;SDS011;3038;51.122;6.840;2022-12-29T08:55:26;5.30;;;1.37;;
6019;SDS011;3038;51.122;6.840;2022-12-29T08:57:51;4.10;;;1.23;;
6019;SDS011;3038;51.122;6.840;2022-12-29T09:00:17;6.40;;;1.37;;
6019;SDS011;3038;51.122;6.840;2022-12-29T09:02:43;2.57;;;1.17;;
6019;SDS011;3038;51.122;6.840;2022-12-29T09:05:08;3.13;;;0.87;;
6019;SDS011;3038;51.122;6.840;2022-12-29T09:07:34;4.33;;;1.30;;
6019;SDS011;3038;51.122;6.840;2022-12-29T09:10:00;1.53;;;0.93;;
6019;SDS011;3038;51.122;6.840;2022-12-29T09:12:26;2.50;;;0.90;;
6019;SDS011;3038;51.122;6.840;2022-12-29T09:14:51;2.40;;;1.30;;
6019;SDS011;3038;51.122;6.840;2022-12-29T09:17:17;2.63;;;1.37;;
6019;SDS011;3038;51.122;6.840;2022-12-29T09:20:01;3.70;;;1.07;;
6019;SDS011;3038;51.122;6.840;2022-12-29T09:22:26;1.20;;;0.77;;
6019;SDS011;3038;51.122;6.840;2022-12-29T09:24:52;3.33;;;1.17;;
6019;SDS011;3038;51.122;6.840;2022-12-29T09:27:17;3.53;;;1.57;;
6019;SDS011;3038;51.122;6.840;2022-12-29T09:29:42;3.73;;;0.90;;
6019;SDS011;3038;51.122;6.840;2022-12-29T09:32:08;1.27;;;0.80;;
6019;SDS011;3038;51.122;6.840;2022-12-29T09:34:34;2.13;;;0.77;;
6019;SDS011;3038;51.122;6.840;2022-12-29T09:36:59;5.03;;;1.00;;
6019;SDS011;3038;51.122;6.840;2022-12-29T09:39:24;2.00;;;1.10;;
6019;SDS011;3038;51.122;6.840;2022-12-29T09:41:59;2.30;;;0.87;;
6019;SDS011;3038;51.122;6.840;2022-12-29T09:47:21;6.60;;;1.37;;
6019;SDS011;3038;51.122;6.840;2022-12-29T09:52:15;3.07;;;1.10;;
6019;SDS011;3038;51.122;6.840;2022-12-29T09:54:53;4.03;;;1.63;;
6019;SDS011;3038;51.122;6.840;2022-12-29T09:57:24;2.30;;;0.97;;
6019;SDS011;3038;51.122;6.840;2022-12-29T09:59:55;4.83;;;1.60;;
6019;SDS011;3038;51.122;6.840;2022-12-29T10:02:32;6.77;;;1.07;;
6019;SDS011;3038;51.122;6.840;2022-12-29T10:05:12;4.03;;;1.17;;
6019;SDS011;3038;51.122;6.840;2022-12-29T10:08:00;2.33;;;1.10;;
6019;SDS011;3038;51.122;6.840;2022-12-29T10:10:32;2.63;;;0.83;;
6019;SDS011;3038;51.122;6.840;2022-12-29T10:24:21;3.50;;;1.33;;
6019;SDS011;3038;51.122;6.840;2022-12-29T10:26:47;5.70;;;2.37;;
6019;SDS011;3038;51.122;6.840;2022-12-29T10:29:17;6.07;;;1.87;;
6019;SDS011;3038;51.122;6.840;2022-12-29T10:31:50;4.77;;;1.07;;
6019;SDS011;3038;51.122;6.840;2022-12-29T10:34:26;2.40;;;0.87;;
6019;SDS011;3038;51.122;6.840;2022-12-29T10:36:58;5.43;;;1.33;;
6019;SDS011;3038;51.122;6.840;2022-12-29T10:44:51;2.83;;;1.90;;
6019;SDS011;3038;51.122;6.840;2022-12-29T10:47:18;5.83;;;1.60;;
6019;SDS011;3038;51.122;6.840;2022-12-29T10:49:48;9.07;;;1.37;;
6019;SDS011;3038;51.122;6.840;2022-12-29T10:52:14;3.67;;;1.93;;
6019;SDS011;3038;51.122;6.840;2022-12-29T10:57:25;1.67;;;1.40;;
6019;SDS011;3038;51.122;6.840;2022-12-29T10:59:54;5.27;;;1.60;;
6019;SDS011;3038;51.122;6.840;2022-12-29T11:02:24;3.40;;;1.10;;
6019;SDS011;3038;51.122;6.840;2022-12-29T11:08:17;2.70;;;1.13;;
6019;SDS011;3038;51.122;6.840;2022-12-29T11:10:59;4.00;;;1.53;;
6019;SDS011;3038;51.122;6.840;2022-12-29T11:13:31;3.43;;;1.33;;
6019;SDS011;3038;51.122;6.840;2022-12-29T11:15:58;5.50;;;1.73;;
6019;SDS011;3038;51.122;6.840;2022-12-29T11:18:32;4.53;;;1.80;;
6019;SDS011;3038;51.122;6.840;2022-12-29T11:21:02;2.73;;;1.30;;
6019;SDS011;3038;51.122;6.840;2022-12-29T11:29:03;8.83;;;1.30;;
6019;SDS011;3038;51.122;6.840;2022-12-29T11:31:29;5.57;;;1.63;;
6019;SDS011;3038;51.122;6.840;2022-12-29T11:33:54;4.87;;;1.17;;
6019;SDS011;3038;51.122;6.840;2022-12-29T11:36:20;2.10;;;1.03;;
6019;SDS011;3038;51.122;6.840;2022-12-29T11:38:49;0.97;;;0.67;;
6019;SDS011;3038;51.122;6.840;2022-12-29T11:41:21;4.30;;;1.27;;
6019;SDS011;3038;51.122;6.840;2022-12-29T11:43:48;3.10;;;1.00;;
6019;SDS011;3038;51.122;6.840;2022-12-29T11:46:19;2.03;;;1.10;;
6019;SDS011;3038;51.122;6.840;2022-12-29T11:48:56;3.53;;;1.10;;
6019;SDS011;3038;51.122;6.840;2022-12-29T11:51:46;1.73;;;1.00;;
6019;SDS011;3038;51.122;6.840;2022-12-29T11:54:15;3.37;;;1.07;;
6019;SDS011;3038;51.122;6.840;2022-12-29T11:56:46;3.57;;;0.93;;
6019;SDS011;3038;51.122;6.840;2022-12-29T12:02:03;3.43;;;1.33;;
6019;SDS011;3038;51.122;6.840;2022-12-29T12:05:16;1.97;;;1.00;;
6019;SDS011;3038;51.122;6.840;2022-12-29T12:08:02;4.67;;;1.40;;
6019;SDS011;3038;51.122;6.840;2022-12-29T12:10:34;3.93;;;1.60;;
6019;SDS011;3038;51.122;6.840;2022-12-29T12:13:17;2.60;;;1.00;;
6019;SDS011;3038;51.122;6.840;2022-12-29T12:15:44;3.07;;;1.30;;
6019;SDS011;3038;51.122;6.840;2022-12-29T12:18:19;7.40;;;1.20;;
6019;SDS011;3038;51.122;6.840;2022-12-29T12:20:54;4.23;;;1.43;;
6019;SDS011;3038;51.122;6.840;2022-12-29T12:23:29;6.13;;;1.80;;
6019;SDS011;3038;51.122;6.840;2022-12-29T12:26:02;3.63;;;1.40;;
6019;SDS011;3038;51.122;6.840;2022-12-29T12:34:11;2.13;;;1.20;;
6019;SDS011;3038;51.122;6.840;2022-12-29T12:39:32;1.87;;;0.60;;
6019;SDS011;3038;51.122;6.840;2022-12-29T12:42:24;2.67;;;1.40;;
6019;SDS011;3038;51.122;6.840;2022-12-29T12:53:31;2.10;;;1.20;;
6019;SDS011;3038;51.122;6.840;2022-12-29T13:04:39;4.40;;;1.50;;
6019;SDS011;3038;51.122;6.840;2022-12-29T13:10:16;3.43;;;1.63;;
6019;SDS011;3038;51.122;6.840;2022-12-29T13:16:13;7.40;;;1.43;;
6019;SDS011;3038;51.122;6.840;2022-12-29T13:22:01;2.93;;;1.50;;
6019;SDS011;3038;51.122;6.840;2022-12-29T13:24:47;8.23;;;2.30;;
6019;SDS011;3038;51.122;6.840;2022-12-29T13:38:12;1.47;;;0.70;;
6019;SDS011;3038;51.122;6.840;2022-12-29T13:41:01;3.53;;;0.87;;
6019;SDS011;3038;51.122;6.840;2022-12-29T13:43:32;4.43;;;2.43;;
6019;SDS011;3038;51.122;6.840;2022-12-29T13:46:08;3.17;;;1.10;;
6019;SDS011;3038;51.122;6.840;2022-12-29T13:48:59;2.80;;;1.20;;
6019;SDS011;3038;51.122;6.840;2022-12-29T13:51:26;3.50;;;1.10;;
6019;SDS011;3038;51.122;6.840;2022-12-29T13:54:01;2.73;;;1.30;;
6019;SDS011;3038;51.122;6.840;2022-12-29T13:59:28;1.57;;;0.90;;
6019;SDS011;3038;51.122;6.840;2022-12-29T14:04:58;3.53;;;1.00;;
6019;SDS011;3038;51.122;6.840;2022-12-29T14:07:25;6.23;;;1.53;;
6019;SDS011;3038;51.122;6.840;2022-12-29T14:09:52;7.53;;;1.40;;
6019;SDS011;3038;51.122;6.840;2022-12-29T14:17:34;2.10;;;0.97;;
6019;SDS011;3038;51.122;6.840;2022-12-29T14:20:00;2.30;;;1.30;;
6019;SDS011;3038;51.122;6.840;2022-12-29T14:22:26;2.20;;;1.33;;
6019;SDS011;3038;51.122;6.840;2022-12-29T14:24:53;3.17;;;0.77;;
6019;SDS011;3038;51.122;6.840;2022-12-29T14:29:47;6.37;;;1.00;;
6019;SDS011;3038;51.122;6.840;2022-12-29T14:34:45;4.33;;;1.50;;
6019;SDS011;3038;51.122;6.840;2022-12-29T14:37:23;3.13;;;1.07;;
6019;SDS011;3038;51.122;6.840;2022-12-29T14:39:50;8.20;;;1.80;;
6019;SDS011;3038;51.122;6.840;2022-12-29T14:42:31;2.20;;;1.10;;
6019;SDS011;3038;51.122;6.840;2022-12-29T14:45:06;6.33;;;1.40;;
6019;SDS011;3038;51.122;6.840;2022-12-29T14:47:51;1.80;;;1.13;;
6019;SDS011;3038;51.122;6.840;2022-12-29T14:50:22;4.80;;;1.40;;
6019;SDS011;3038;51.122;6.840;2022-12-29T14:58:02;4.93;;;1.47;;
6019;SDS011;3038;51.122;6.840;2022-12-29T15:00:34;5.30;;;1.93;;
6019;SDS011;3038;51.122;6.840;2022-12-29T15:03:23;3.23;;;1.40;;
6019;SDS011;3038;51.122;6.840;2022-12-29T15:08:20;3.73;;;1.30;;
6019;SDS011;3038;51.122;6.840;2022-12-29T15:11:13;1.90;;;0.83;;
6019;SDS011;3038;51.122;6.840;2022-12-29T15:13:54;2.70;;;1.10;;
6019;SDS011;3038;51.122;6.840;2022-12-29T15:18:48;4.27;;;1.13;;
6019;SDS011;3038;51.122;6.840;2022-12-29T15:21:14;1.10;;;0.70;;
6019;SDS011;3038;51.122;6.840;2022-12-29T15:23:42;3.13;;;1.37;;
6019;SDS011;3038;51.122;6.840;2022-12-29T15:26:10;6.97;;;1.60;;
6019;SDS011;3038;51.122;6.840;2022-12-29T15:28:45;2.30;;;1.43;;
6019;SDS011;3038;51.122;6.840;2022-12-29T15:31:21;2.20;;;1.10;;
6019;SDS011;3038;51.122;6.840;2022-12-29T15:33:52;2.77;;;1.03;;
6019;SDS011;3038;51.122;6.840;2022-12-29T15:36:21;3.00;;;1.27;;
6019;SDS011;3038;51.122;6.840;2022-12-29T15:38:51;5.63;;;3.33;;
6019;SDS011;3038;51.122;6.840;2022-12-29T15:41:59;5.50;;;1.70;;
6019;SDS011;3038;51.122;6.840;2022-12-29T15:44:29;3.43;;;1.60;;
6019;SDS011;3038;51.122;6.840;2022-12-29T15:49:43;4.23;;;1.90;;
6019;SDS011;3038;51.122;6.840;2022-12-29T15:52:13;2.83;;;1.43;;
6019;SDS011;3038;51.122;6.840;2022-12-29T15:54:43;2.60;;;1.00;;
6019;SDS011;3038;51.122;6.840;2022-12-29T15:57:16;3.17;;;1.13;;
6019;SDS011;3038;51.122;6.840;2022-12-29T15:59:51;7.33;;;3.00;;
6019;SDS011;3038;51.122;6.840;2022-12-29T16:02:17;5.27;;;2.07;;
6019;SDS011;3038;51.122;6.840;2022-12-29T16:04:43;4.47;;;0.80;;
6019;SDS011;3038;51.122;6.840;2022-12-29T16:07:22;3.47;;;1.30;;
6019;SDS011;3038;51.122;6.840;2022-12-29T16:09:53;8.00;;;1.50;;
6019;SDS011;3038;51.122;6.840;2022-12-29T16:12:21;4.03;;;1.47;;
6019;SDS011;3038;51.122;6.840;2022-12-29T16:15:03;6.23;;;1.93;;
6019;SDS011;3038;51.122;6.840;2022-12-29T16:17:31;5.83;;;2.10;;
6019;SDS011;3038;51.122;6.840;2022-12-29T16:20:00;5.17;;;1.50;;
6019;SDS011;3038;51.122;6.840;2022-12-29T16:22:32;7.50;;;2.00;;
6019;SDS011;3038;51.122;6.840;2022-12-29T16:25:02;6.30;;;2.23;;
6019;SDS011;3038;51.122;6.840;2022-12-29T16:27:41;7.10;;;1.73;;
6019;SDS011;3038;51.122;6.840;2022-12-29T16:30:19;4.60;;;1.90;;
6019;SDS011;3038;51.122;6.840;2022-12-29T16:32:47;4.70;;;2.10;;
6019;SDS011;3038;51.122;6.840;2022-12-29T16:37:44;4.70;;;1.70;;
6019;SDS011;3038;51.122;6.840;2022-12-29T16:42:58;3.67;;;1.70;;
6019;SDS011;3038;51.122;6.840;2022-12-29T16:46:06;3.90;;;1.37;;
6019;SDS011;3038;51.122;6.840;2022-12-29T16:51:17;6.40;;;2.63;;
6019;SDS011;3038;51.122;6.840;2022-12-29T16:53:53;4.63;;;1.90;;
6019;SDS011;3038;51.122;6.840;2022-12-29T16:56:23;8.87;;;2.93;;
6019;SDS011;3038;51.122;6.840;2022-12-29T16:59:38;8.50;;;2.80;;
6019;SDS011;3038;51.122;6.840;2022-12-29T17:01:43;5.10;;;2.17;;
6019;SDS011;3038;51.122;6.840;2022-12-29T17:04:09;3.33;;;1.60;;
6019;SDS011;3038;51.122;6.840;2022-12-29T17:06:37;4.30;;;2.27;;
6019;SDS011;3038;51.122;6.840;2022-12-29T17:09:10;5.63;;;1.73;;
6019;SDS011;3038;51.122;6.840;2022-12-29T17:11:41;10.10;;;2.47;;
6019;SDS011;3038;51.122;6.840;2022-12-29T17:14:20;6.30;;;2.30;;
6019;SDS011;3038;51.122;6.840;2022-12-29T17:17:05;5.10;;;2.83;;
6019;SDS011;3038;51.122;6.840;2022-12-29T17:19:43;3.83;;;1.53;;
6019;SDS011;3038;51.122;6.840;2022-12-29T17:22:13;5.10;;;2.00;;
6019;SDS011;3038;51.122;6.840;2022-12-29T17:24:41;6.50;;;3.03;;
6019;SDS011;3038;51.122;6.840;2022-12-29T17:27:06;5.73;;;2.90;;
6019;SDS011;3038;51.122;6.840;2022-12-29T17:29:38;4.80;;;1.90;;
6019;SDS011;3038;51.122;6.840;2022-12-29T17:32:08;5.90;;;3.67;;
6019;SDS011;3038;51.122;6.840;2022-12-29T17:34:38;9.00;;;2.60;;
6019;SDS011;3038;51.122;6.840;2022-12-29T17:37:26;10.73;;;5.03;;
6019;SDS011;3038;51.122;6.840;2022-12-29T17:39:54;8.23;;;2.53;;
6019;SDS011;3038;51.122;6.840;2022-12-29T17:42:20;7.43;;;2.77;;
6019;SDS011;3038;51.122;6.840;2022-12-29T17:44:45;6.53;;;1.90;;
6019;SDS011;3038;51.122;6.840;2022-12-29T17:47:11;9.17;;;3.10;;
6019;SDS011;3038;51.122;6.840;2022-12-29T17:49:36;3.20;;;1.60;;
6019;SDS011;3038;51.122;6.840;2022-12-29T17:52:02;10.50;;;3.33;;
6019;SDS011;3038;51.122;6.840;2022-12-29T17:54:28;3.03;;;1.60;;
6019;SDS011;3038;51.122;6.840;2022-12-29T17:56:55;9.77;;;2.70;;
6019;SDS011;3038;51.122;6.840;2022-12-29T17:59:20;7.83;;;2.20;;
6019;SDS011;3038;51.122;6.840;2022-12-29T18:01:46;5.10;;;2.07;;
6019;SDS011;3038;51.122;6.840;2022-12-29T18:04:15;11.00;;;2.80;;
6019;SDS011;3038;51.122;6.840;2022-12-29T18:06:42;5.70;;;1.90;;
6019;SDS011;3038;51.122;6.840;2022-12-29T18:09:08;9.10;;;2.53;;